Star Flyer — 9HA2512 — position and weather

sailwx.info

Track history (hours):
 
Tides and Currents Weather Stations Pressure Air Temp Water Temp Dewpoint Dewpoint Depression Visibility Wind Speed Wind Dir Waves Ship Positions

Star Flyer

Last reported at 2017-Apr-25 04:03 UTC. Time now 2017-Apr-26 15:38 UTC.
Position N 39°18' E 003°35'.

Length 112 m; draft 5.9 m.

Type: Ship. MMSI: 248785000.

Date/timePositionNaut miles runAvg speedWind from/ knotsBaromVisibWave heightAir tempDewpointWater temp
2017-Apr-25 04:03N 39°18' E 003°35'1 8.9
2017-Apr-25 03:59N 39°18' E 003°34'5 8.9
2017-Apr-25 03:26N 39°16' E 003°29'4 9.1
2017-Apr-25 03:00N 39°15' E 003°24'5 9.2
2017-Apr-25 02:26N 39°12' E 003°18'4 9.1
2017-Apr-25 02:00N 39°11' E 003°13'5 9.1
2017-Apr-25 01:30N 39°09' E 003°08'5 9.0
2017-Apr-25 01:00N 39°07' E 003°03'4 8.9
2017-Apr-25 00:30N 39°06' E 002°57'4 8.8
2017-Apr-25 00:00N 39°05' E 002°52'4 8.7
2017-Apr-24 23:30N 39°05' E 002°46'5 8.8
2017-Apr-24 23:00N 39°04' E 002°40'5 9.1
2017-Apr-24 22:28N 39°03' E 002°34'5 9.1
2017-Apr-24 21:57N 39°03' E 002°28'4 8.9
2017-Apr-24 21:29N 39°03' E 002°23'4 8.8
2017-Apr-24 21:00N 39°03' E 002°17'4 8.7
2017-Apr-24 20:30N 39°03' E 002°12'4 8.7
2017-Apr-24 20:00N 39°03' E 002°06'4 8.6
2017-Apr-24 19:30N 39°03' E 002°01'4 8.6
2017-Apr-24 19:00N 39°02' E 001°55'4 8.6
2017-Apr-24 18:30N 39°02' E 001°50'4 8.6
2017-Apr-24 18:00N 39°00' E 001°44'4 8.4
2017-Apr-24 17:30N 38°58' E 001°40'4 8.3
2017-Apr-24 17:00N 38°56' E 001°35'7 0.9
2017-Apr-24 10:00N 38°54' E 001°27'3 6.0
2017-Apr-24 09:30N 38°52' E 001°30'4 6.7
2017-Apr-24 08:56N 38°48' E 001°32'113 8.2
2017-Apr-23 19:13N 37°31' W 000°13'3 8.7
2017-Apr-23 18:53N 37°29' W 000°15'11 8.5
2017-Apr-23 17:34N 37°22' W 000°26'  
2017-Apr-20 00:40N 36°03' W 005°11'1 5.1
2017-Apr-20 00:29N 36°03' W 005°12'2 5.1
2017-Apr-20 00:00N 36°02' W 005°14'2 4.5
2017-Apr-19 23:30N 36°00' W 005°17'2 4.7
2017-Apr-19 23:01N 35°60' W 005°19'2 4.5
2017-Apr-19 22:30N 35°59' W 005°22'2 4.9
2017-Apr-19 22:01N 35°58' W 005°25'2 4.5
2017-Apr-19 21:31N 35°57' W 005°27'3 5.2
2017-Apr-19 21:00N 35°57' W 005°30'3 5.4
2017-Apr-19 20:25N 35°56' W 005°34'6 5.3
2017-Apr-19 19:22N 35°54' W 005°41'2 4.2
2017-Apr-19 18:58N 35°54' W 005°43'146 7.0
2017-Apr-18 22:04N 35°47' W 008°42'2 9.0
2017-Apr-18 21:53N 35°48' W 008°44'3 8.9
2017-Apr-18 21:30N 35°48' W 008°49'6 9.0
2017-Apr-18 20:51N 35°49' W 008°56'6 8.7
2017-Apr-18 20:10N 35°50' W 009°03'2 8.6
2017-Apr-18 19:57N 35°51' W 009°05'5 8.6
2017-Apr-18 19:25N 35°51' W 009°11'4 8.6
2017-Apr-18 18:57N 35°52' W 009°16'4 8.5
2017-Apr-18 18:30N 35°52' W 009°20'4 8.3
2017-Apr-18 17:59N 35°53' W 009°26'14 8.3
2017-Apr-18 16:20N 35°56' W 009°42'27 8.2
2017-Apr-18 13:04N 36°01' W 010°15'1 8.5
2017-Apr-18 13:00N 36°01' W 010°15'  
2017-Apr-15 06:25N 37°33' W 023°56'4 9.5
2017-Apr-15 06:00N 37°34' W 024°01'5 9.5
2017-Apr-15 05:30N 37°34' W 024°07'5 9.1
2017-Apr-15 05:00N 37°35' W 024°12'5 8.9
2017-Apr-15 04:30N 37°36' W 024°18'  
Track history (hours):
 
Tides and Currents Weather Stations Pressure Air Temp Water Temp Dewpoint Dewpoint Depression Visibility Wind Speed Wind Dir Waves Ship Positions

Star Flyer

Last reported at 2017-Apr-25 04:03 UTC. Time now 2017-Apr-26 15:38 UTC.
Position N 39°18' E 003°35'.

Length 112 m; draft 5.9 m.

Type: Ship. MMSI: 248785000.

Date/timePositionNaut miles runAvg speedWind from/ knotsBaromVisibWave heightAir tempDewpointWater temp
2017-Apr-25 04:03N 39°18' E 003°35'1 8.9
2017-Apr-25 03:59N 39°18' E 003°34'5 8.9
2017-Apr-25 03:26N 39°16' E 003°29'4 9.1
2017-Apr-25 03:00N 39°15' E 003°24'5 9.2
2017-Apr-25 02:26N 39°12' E 003°18'4 9.1
2017-Apr-25 02:00N 39°11' E 003°13'5 9.1
2017-Apr-25 01:30N 39°09' E 003°08'5 9.0
2017-Apr-25 01:00N 39°07' E 003°03'4 8.9
2017-Apr-25 00:30N 39°06' E 002°57'4 8.8
2017-Apr-25 00:00N 39°05' E 002°52'4 8.7
2017-Apr-24 23:30N 39°05' E 002°46'5 8.8
2017-Apr-24 23:00N 39°04' E 002°40'5 9.1
2017-Apr-24 22:28N 39°03' E 002°34'5 9.1
2017-Apr-24 21:57N 39°03' E 002°28'4 8.9
2017-Apr-24 21:29N 39°03' E 002°23'4 8.8
2017-Apr-24 21:00N 39°03' E 002°17'4 8.7
2017-Apr-24 20:30N 39°03' E 002°12'4 8.7
2017-Apr-24 20:00N 39°03' E 002°06'4 8.6
2017-Apr-24 19:30N 39°03' E 002°01'4 8.6
2017-Apr-24 19:00N 39°02' E 001°55'4 8.6
2017-Apr-24 18:30N 39°02' E 001°50'4 8.6
2017-Apr-24 18:00N 39°00' E 001°44'4 8.4
2017-Apr-24 17:30N 38°58' E 001°40'4 8.3
2017-Apr-24 17:00N 38°56' E 001°35'7 0.9
2017-Apr-24 10:00N 38°54' E 001°27'3 6.0
2017-Apr-24 09:30N 38°52' E 001°30'4 6.7
2017-Apr-24 08:56N 38°48' E 001°32'113 8.2
2017-Apr-23 19:13N 37°31' W 000°13'3 8.7
2017-Apr-23 18:53N 37°29' W 000°15'11 8.5
2017-Apr-23 17:34N 37°22' W 000°26'  
2017-Apr-20 00:40N 36°03' W 005°11'1 5.1
2017-Apr-20 00:29N 36°03' W 005°12'2 5.1
2017-Apr-20 00:00N 36°02' W 005°14'2 4.5
2017-Apr-19 23:30N 36°00' W 005°17'2 4.7
2017-Apr-19 23:01N 35°60' W 005°19'2 4.5
2017-Apr-19 22:30N 35°59' W 005°22'2 4.9
2017-Apr-19 22:01N 35°58' W 005°25'2 4.5
2017-Apr-19 21:31N 35°57' W 005°27'3 5.2
2017-Apr-19 21:00N 35°57' W 005°30'3 5.4
2017-Apr-19 20:25N 35°56' W 005°34'6 5.3
2017-Apr-19 19:22N 35°54' W 005°41'2 4.2
2017-Apr-19 18:58N 35°54' W 005°43'146 7.0
2017-Apr-18 22:04N 35°47' W 008°42'2 9.0
2017-Apr-18 21:53N 35°48' W 008°44'3 8.9
2017-Apr-18 21:30N 35°48' W 008°49'6 9.0
2017-Apr-18 20:51N 35°49' W 008°56'6 8.7
2017-Apr-18 20:10N 35°50' W 009°03'2 8.6
2017-Apr-18 19:57N 35°51' W 009°05'5 8.6
2017-Apr-18 19:25N 35°51' W 009°11'4 8.6
2017-Apr-18 18:57N 35°52' W 009°16'4 8.5
2017-Apr-18 18:30N 35°52' W 009°20'4 8.3
2017-Apr-18 17:59N 35°53' W 009°26'14 8.3
2017-Apr-18 16:20N 35°56' W 009°42'27 8.2
2017-Apr-18 13:04N 36°01' W 010°15'1 8.5
2017-Apr-18 13:00N 36°01' W 010°15'  
2017-Apr-15 06:25N 37°33' W 023°56'4 9.5
2017-Apr-15 06:00N 37°34' W 024°01'5 9.5
2017-Apr-15 05:30N 37°34' W 024°07'5 9.1
2017-Apr-15 05:00N 37°35' W 024°12'5 8.9
2017-Apr-15 04:30N 37°36' W 024°18'  

Dump ship's entire track history